sensor_id;sensor_type;location;lat;lon;timestamp;P1;durP1;ratioP1;P2;durP2;ratioP2
74959;SDS011;63518;49.572;1.106;2024-02-16T00:02:21;583.17;;;452.40;;
74959;SDS011;63518;49.572;1.106;2024-02-16T00:04:49;585.42;;;456.23;;
74959;SDS011;63518;49.572;1.106;2024-02-16T00:07:15;588.83;;;461.67;;
74959;SDS011;63518;49.572;1.106;2024-02-16T00:09:42;590.17;;;460.90;;
74959;SDS011;63518;49.572;1.106;2024-02-16T00:12:09;587.53;;;460.98;;
74959;SDS011;63518;49.572;1.106;2024-02-16T00:14:36;583.05;;;450.60;;
74959;SDS011;63518;49.572;1.106;2024-02-16T00:17:02;570.83;;;422.48;;
74959;SDS011;63518;49.572;1.106;2024-02-16T00:19:30;577.40;;;442.50;;
74959;SDS011;63518;49.572;1.106;2024-02-16T00:21:57;579.80;;;449.98;;
74959;SDS011;63518;49.572;1.106;2024-02-16T00:24:24;585.13;;;459.42;;
74959;SDS011;63518;49.572;1.106;2024-02-16T00:26:50;585.10;;;460.95;;
74959;SDS011;63518;49.572;1.106;2024-02-16T00:29:18;582.20;;;458.02;;
74959;SDS011;63518;49.572;1.106;2024-02-16T00:31:45;581.22;;;456.95;;
74959;SDS011;63518;49.572;1.106;2024-02-16T00:34:12;594.45;;;461.33;;
74959;SDS011;63518;49.572;1.106;2024-02-16T00:36:39;575.25;;;448.95;;
74959;SDS011;63518;49.572;1.106;2024-02-16T00:39:05;577.70;;;452.80;;
74959;SDS011;63518;49.572;1.106;2024-02-16T00:41:32;577.53;;;454.85;;
74959;SDS011;63518;49.572;1.106;2024-02-16T00:43:59;576.33;;;455.85;;
74959;SDS011;63518;49.572;1.106;2024-02-16T00:46:26;573.90;;;453.20;;
74959;SDS011;63518;49.572;1.106;2024-02-16T00:48:52;577.33;;;460.77;;
74959;SDS011;63518;49.572;1.106;2024-02-16T00:51:20;578.38;;;464.33;;
74959;SDS011;63518;49.572;1.106;2024-02-16T00:53:47;571.97;;;455.83;;
74959;SDS011;63518;49.572;1.106;2024-02-16T00:56:14;572.88;;;460.08;;
74959;SDS011;63518;49.572;1.106;2024-02-16T00:58:41;576.63;;;467.67;;
74959;SDS011;63518;49.572;1.106;2024-02-16T01:01:09;575.75;;;465.15;;
74959;SDS011;63518;49.572;1.106;2024-02-16T01:03:38;572.97;;;460.63;;
74959;SDS011;63518;49.572;1.106;2024-02-16T01:06:05;570.00;;;458.63;;
74959;SDS011;63518;49.572;1.106;2024-02-16T01:08:32;567.20;;;455.33;;
74959;SDS011;63518;49.572;1.106;2024-02-16T01:10:59;570.45;;;460.00;;
74959;SDS011;63518;49.572;1.106;2024-02-16T01:13:26;571.83;;;462.33;;
74959;SDS011;63518;49.572;1.106;2024-02-16T01:15:52;571.75;;;463.38;;
74959;SDS011;63518;49.572;1.106;2024-02-16T01:18:19;571.05;;;463.02;;
74959;SDS011;63518;49.572;1.106;2024-02-16T01:20:46;574.88;;;470.40;;
74959;SDS011;63518;49.572;1.106;2024-02-16T01:23:13;571.58;;;466.92;;
74959;SDS011;63518;49.572;1.106;2024-02-16T01:25:40;573.63;;;471.52;;
74959;SDS011;63518;49.572;1.106;2024-02-16T01:28:06;571.70;;;471.20;;
74959;SDS011;63518;49.572;1.106;2024-02-16T01:30:33;571.95;;;469.75;;
74959;SDS011;63518;49.572;1.106;2024-02-16T01:33:00;569.05;;;466.63;;
74959;SDS011;63518;49.572;1.106;2024-02-16T01:35:27;572.83;;;470.05;;
74959;SDS011;63518;49.572;1.106;2024-02-16T01:37:53;572.50;;;471.55;;
74959;SDS011;63518;49.572;1.106;2024-02-16T01:40:20;572.78;;;472.00;;
74959;SDS011;63518;49.572;1.106;2024-02-16T01:42:47;573.60;;;474.67;;
74959;SDS011;63518;49.572;1.106;2024-02-16T01:45:14;574.38;;;473.70;;
74959;SDS011;63518;49.572;1.106;2024-02-16T01:47:43;573.85;;;482.92;;
74959;SDS011;63518;49.572;1.106;2024-02-16T01:50:10;576.85;;;481.08;;
74959;SDS011;63518;49.572;1.106;2024-02-16T01:52:37;576.42;;;479.33;;
74959;SDS011;63518;49.572;1.106;2024-02-16T01:55:04;575.13;;;477.20;;
74959;SDS011;63518;49.572;1.106;2024-02-16T01:57:45;574.53;;;476.77;;
74959;SDS011;63518;49.572;1.106;2024-02-16T02:00:13;571.47;;;470.85;;
74959;SDS011;63518;49.572;1.106;2024-02-16T02:02:43;571.47;;;473.95;;
74959;SDS011;63518;49.572;1.106;2024-02-16T02:05:11;580.03;;;486.08;;
74959;SDS011;63518;49.572;1.106;2024-02-16T02:07:39;579.80;;;486.92;;
74959;SDS011;63518;49.572;1.106;2024-02-16T02:10:06;576.60;;;478.25;;
74959;SDS011;63518;49.572;1.106;2024-02-16T02:12:33;576.97;;;483.58;;
74959;SDS011;63518;49.572;1.106;2024-02-16T02:15:00;576.72;;;484.08;;
74959;SDS011;63518;49.572;1.106;2024-02-16T02:17:27;577.22;;;483.90;;
74959;SDS011;63518;49.572;1.106;2024-02-16T02:19:54;582.13;;;488.58;;
74959;SDS011;63518;49.572;1.106;2024-02-16T02:22:20;581.78;;;488.63;;
74959;SDS011;63518;49.572;1.106;2024-02-16T02:24:48;580.10;;;490.35;;
74959;SDS011;63518;49.572;1.106;2024-02-16T02:27:18;580.58;;;488.50;;
74959;SDS011;63518;49.572;1.106;2024-02-16T02:29:44;581.92;;;493.30;;
74959;SDS011;63518;49.572;1.106;2024-02-16T02:32:11;580.63;;;490.52;;
74959;SDS011;63518;49.572;1.106;2024-02-16T02:34:39;582.00;;;492.77;;
74959;SDS011;63518;49.572;1.106;2024-02-16T02:37:06;582.40;;;492.08;;
74959;SDS011;63518;49.572;1.106;2024-02-16T02:39:33;581.47;;;492.63;;
74959;SDS011;63518;49.572;1.106;2024-02-16T02:41:59;585.67;;;500.00;;
74959;SDS011;63518;49.572;1.106;2024-02-16T02:44:26;583.05;;;496.48;;
74959;SDS011;63518;49.572;1.106;2024-02-16T02:46:53;586.28;;;497.23;;
74959;SDS011;63518;49.572;1.106;2024-02-16T02:49:20;581.90;;;495.08;;
74959;SDS011;63518;49.572;1.106;2024-02-16T02:51:47;580.90;;;497.83;;
74959;SDS011;63518;49.572;1.106;2024-02-16T02:54:13;582.92;;;499.20;;
74959;SDS011;63518;49.572;1.106;2024-02-16T02:56:40;582.60;;;497.00;;
74959;SDS011;63518;49.572;1.106;2024-02-16T02:59:07;581.08;;;496.40;;
74959;SDS011;63518;49.572;1.106;2024-02-16T03:01:34;581.90;;;496.17;;
74959;SDS011;63518;49.572;1.106;2024-02-16T03:04:02;583.83;;;496.88;;
74959;SDS011;63518;49.572;1.106;2024-02-16T03:06:30;582.53;;;493.70;;
74959;SDS011;63518;49.572;1.106;2024-02-16T03:08:57;583.47;;;499.05;;
74959;SDS011;63518;49.572;1.106;2024-02-16T03:11:24;581.63;;;498.85;;
74959;SDS011;63518;49.572;1.106;2024-02-16T03:13:50;582.58;;;497.60;;
74959;SDS011;63518;49.572;1.106;2024-02-16T03:16:17;583.90;;;497.15;;
74959;SDS011;63518;49.572;1.106;2024-02-16T03:18:44;578.50;;;487.08;;
74959;SDS011;63518;49.572;1.106;2024-02-16T03:21:14;583.47;;;498.90;;
74959;SDS011;63518;49.572;1.106;2024-02-16T03:23:44;582.45;;;497.08;;
74959;SDS011;63518;49.572;1.106;2024-02-16T03:26:17;582.42;;;493.23;;
74959;SDS011;63518;49.572;1.106;2024-02-16T03:28:48;583.83;;;495.70;;
74959;SDS011;63518;49.572;1.106;2024-02-16T03:31:19;590.65;;;505.20;;
74959;SDS011;63518;49.572;1.106;2024-02-16T03:33:48;591.80;;;505.80;;
74959;SDS011;63518;49.572;1.106;2024-02-16T03:36:16;589.67;;;504.90;;
74959;SDS011;63518;49.572;1.106;2024-02-16T03:38:43;586.63;;;511.85;;
74959;SDS011;63518;49.572;1.106;2024-02-16T03:41:12;590.15;;;506.17;;
74959;SDS011;63518;49.572;1.106;2024-02-16T03:43:50;589.45;;;509.85;;
74959;SDS011;63518;49.572;1.106;2024-02-16T03:46:17;588.90;;;507.38;;
74959;SDS011;63518;49.572;1.106;2024-02-16T03:48:44;586.17;;;505.27;;
74959;SDS011;63518;49.572;1.106;2024-02-16T03:51:12;588.25;;;510.13;;
74959;SDS011;63518;49.572;1.106;2024-02-16T03:53:39;588.97;;;508.02;;
74959;SDS011;63518;49.572;1.106;2024-02-16T03:56:05;587.65;;;509.80;;
74959;SDS011;63518;49.572;1.106;2024-02-16T03:58:33;589.78;;;512.22;;
74959;SDS011;63518;49.572;1.106;2024-02-16T04:01:00;586.50;;;509.40;;
74959;SDS011;63518;49.572;1.106;2024-02-16T04:03:27;588.83;;;513.88;;
74959;SDS011;63518;49.572;1.106;2024-02-16T04:05:54;586.53;;;511.77;;
74959;SDS011;63518;49.572;1.106;2024-02-16T04:08:21;588.53;;;512.80;;
74959;SDS011;63518;49.572;1.106;2024-02-16T04:10:47;585.40;;;511.23;;
74959;SDS011;63518;49.572;1.106;2024-02-16T04:13:14;587.33;;;512.42;;
74959;SDS011;63518;49.572;1.106;2024-02-16T04:15:41;583.85;;;513.50;;
74959;SDS011;63518;49.572;1.106;2024-02-16T04:18:08;588.83;;;514.08;;
74959;SDS011;63518;49.572;1.106;2024-02-16T04:20:36;586.78;;;516.58;;
74959;SDS011;63518;49.572;1.106;2024-02-16T04:23:04;586.28;;;515.35;;
74959;SDS011;63518;49.572;1.106;2024-02-16T04:25:31;587.58;;;516.45;;
74959;SDS011;63518;49.572;1.106;2024-02-16T04:27:57;578.10;;;478.90;;
74959;SDS011;63518;49.572;1.106;2024-02-16T04:30:24;578.90;;;483.95;;
74959;SDS011;63518;49.572;1.106;2024-02-16T04:32:51;577.03;;;480.83;;
74959;SDS011;63518;49.572;1.106;2024-02-16T04:35:18;564.53;;;453.13;;
74959;SDS011;63518;49.572;1.106;2024-02-16T04:37:45;567.22;;;454.58;;
74959;SDS011;63518;49.572;1.106;2024-02-16T04:40:12;558.78;;;438.67;;
74959;SDS011;63518;49.572;1.106;2024-02-16T04:42:39;560.67;;;438.23;;
74959;SDS011;63518;49.572;1.106;2024-02-16T04:45:11;558.42;;;441.58;;
74959;SDS011;63518;49.572;1.106;2024-02-16T04:47:39;561.80;;;432.23;;
74959;SDS011;63518;49.572;1.106;2024-02-16T04:50:06;562.17;;;442.45;;
74959;SDS011;63518;49.572;1.106;2024-02-16T04:55:04;545.53;;;415.90;;
74959;SDS011;63518;49.572;1.106;2024-02-16T04:57:32;545.22;;;415.33;;
74959;SDS011;63518;49.572;1.106;2024-02-16T04:59:59;546.50;;;419.70;;
74959;SDS011;63518;49.572;1.106;2024-02-16T05:02:26;548.97;;;421.10;;
74959;SDS011;63518;49.572;1.106;2024-02-16T05:04:53;544.78;;;418.05;;
74959;SDS011;63518;49.572;1.106;2024-02-16T05:07:20;551.55;;;429.20;;
74959;SDS011;63518;49.572;1.106;2024-02-16T05:09:47;544.10;;;414.50;;
74959;SDS011;63518;49.572;1.106;2024-02-16T05:12:14;557.30;;;440.02;;
74959;SDS011;63518;49.572;1.106;2024-02-16T05:14:41;551.17;;;429.58;;
74959;SDS011;63518;49.572;1.106;2024-02-16T05:17:07;549.85;;;420.05;;
74959;SDS011;63518;49.572;1.106;2024-02-16T05:19:34;541.08;;;403.13;;
74959;SDS011;63518;49.572;1.106;2024-02-16T05:22:02;546.65;;;422.08;;
74959;SDS011;63518;49.572;1.106;2024-02-16T05:24:28;552.35;;;428.50;;
74959;SDS011;63518;49.572;1.106;2024-02-16T05:26:55;536.53;;;388.20;;
74959;SDS011;63518;49.572;1.106;2024-02-16T05:29:22;550.88;;;424.30;;
74959;SDS011;63518;49.572;1.106;2024-02-16T05:31:52;558.10;;;429.10;;
74959;SDS011;63518;49.572;1.106;2024-02-16T05:34:19;552.40;;;424.63;;
74959;SDS011;63518;49.572;1.106;2024-02-16T05:36:45;561.17;;;440.92;;
74959;SDS011;63518;49.572;1.106;2024-02-16T05:39:12;561.72;;;442.65;;
74959;SDS011;63518;49.572;1.106;2024-02-16T05:41:53;564.38;;;451.02;;
74959;SDS011;63518;49.572;1.106;2024-02-16T05:44:20;557.15;;;428.48;;
74959;SDS011;63518;49.572;1.106;2024-02-16T05:46:47;554.75;;;423.63;;
74959;SDS011;63518;49.572;1.106;2024-02-16T05:49:14;560.50;;;432.88;;
74959;SDS011;63518;49.572;1.106;2024-02-16T05:51:45;567.25;;;452.45;;
74959;SDS011;63518;49.572;1.106;2024-02-16T05:54:31;562.20;;;440.02;;
74959;SDS011;63518;49.572;1.106;2024-02-16T05:57:03;574.30;;;460.08;;
74959;SDS011;63518;49.572;1.106;2024-02-16T05:59:30;573.58;;;460.55;;
74959;SDS011;63518;49.572;1.106;2024-02-16T06:01:57;574.63;;;459.13;;
74959;SDS011;63518;49.572;1.106;2024-02-16T06:04:25;575.92;;;457.42;;
74959;SDS011;63518;49.572;1.106;2024-02-16T06:06:52;573.70;;;460.73;;
74959;SDS011;63518;49.572;1.106;2024-02-16T06:09:20;572.40;;;460.17;;
74959;SDS011;63518;49.572;1.106;2024-02-16T06:11:47;577.72;;;460.77;;
74959;SDS011;63518;49.572;1.106;2024-02-16T06:14:15;578.63;;;467.52;;
74959;SDS011;63518;49.572;1.106;2024-02-16T06:16:45;572.22;;;457.88;;
74959;SDS011;63518;49.572;1.106;2024-02-16T06:19:12;577.20;;;463.90;;
74959;SDS011;63518;49.572;1.106;2024-02-16T06:21:39;578.45;;;469.75;;
74959;SDS011;63518;49.572;1.106;2024-02-16T06:24:06;559.05;;;432.15;;
74959;SDS011;63518;49.572;1.106;2024-02-16T06:26:34;566.05;;;450.13;;
74959;SDS011;63518;49.572;1.106;2024-02-16T06:29:00;573.95;;;460.60;;
74959;SDS011;63518;49.572;1.106;2024-02-16T06:31:27;556.40;;;419.30;;
74959;SDS011;63518;49.572;1.106;2024-02-16T06:33:54;577.05;;;452.20;;
74959;SDS011;63518;49.572;1.106;2024-02-16T06:36:21;576.97;;;458.20;;
74959;SDS011;63518;49.572;1.106;2024-02-16T06:38:49;576.83;;;459.42;;
74959;SDS011;63518;49.572;1.106;2024-02-16T06:41:15;571.97;;;456.35;;
74959;SDS011;63518;49.572;1.106;2024-02-16T06:43:42;563.55;;;433.45;;
74959;SDS011;63518;49.572;1.106;2024-02-16T06:46:09;557.35;;;420.83;;
74959;SDS011;63518;49.572;1.106;2024-02-16T06:48:36;565.63;;;436.30;;
74959;SDS011;63518;49.572;1.106;2024-02-16T06:51:02;569.67;;;440.23;;
74959;SDS011;63518;49.572;1.106;2024-02-16T06:53:29;573.78;;;450.90;;
74959;SDS011;63518;49.572;1.106;2024-02-16T06:55:56;573.40;;;441.38;;
74959;SDS011;63518;49.572;1.106;2024-02-16T06:58:23;566.08;;;429.40;;
74959;SDS011;63518;49.572;1.106;2024-02-16T07:00:50;569.33;;;430.55;;
74959;SDS011;63518;49.572;1.106;2024-02-16T07:03:16;575.28;;;442.85;;
74959;SDS011;63518;49.572;1.106;2024-02-16T07:05:44;569.42;;;426.50;;
74959;SDS011;63518;49.572;1.106;2024-02-16T07:08:11;572.45;;;433.65;;
74959;SDS011;63518;49.572;1.106;2024-02-16T07:10:37;564.47;;;421.23;;
74959;SDS011;63518;49.572;1.106;2024-02-16T07:13:05;554.20;;;400.60;;
74959;SDS011;63518;49.572;1.106;2024-02-16T07:15:32;553.25;;;393.48;;
74959;SDS011;63518;49.572;1.106;2024-02-16T07:17:59;552.40;;;402.02;;
74959;SDS011;63518;49.572;1.106;2024-02-16T07:20:27;548.85;;;389.25;;
74959;SDS011;63518;49.572;1.106;2024-02-16T07:22:54;563.10;;;420.92;;
74959;SDS011;63518;49.572;1.106;2024-02-16T07:25:21;546.13;;;386.92;;
74959;SDS011;63518;49.572;1.106;2024-02-16T07:27:47;533.10;;;360.10;;
74959;SDS011;63518;49.572;1.106;2024-02-16T07:30:14;564.33;;;413.38;;
74959;SDS011;63518;49.572;1.106;2024-02-16T07:32:52;557.90;;;398.83;;
74959;SDS011;63518;49.572;1.106;2024-02-16T07:35:19;550.17;;;384.48;;
74959;SDS011;63518;49.572;1.106;2024-02-16T07:37:48;556.97;;;404.05;;
74959;SDS011;63518;49.572;1.106;2024-02-16T07:40:18;565.03;;;406.35;;
74959;SDS011;63518;49.572;1.106;2024-02-16T07:42:45;553.08;;;380.33;;
74959;SDS011;63518;49.572;1.106;2024-02-16T07:45:12;555.13;;;376.42;;
74959;SDS011;63518;49.572;1.106;2024-02-16T07:47:42;564.22;;;397.77;;
74959;SDS011;63518;49.572;1.106;2024-02-16T07:50:09;551.20;;;370.77;;
74959;SDS011;63518;49.572;1.106;2024-02-16T07:52:37;561.35;;;382.15;;
74959;SDS011;63518;49.572;1.106;2024-02-16T07:55:05;558.15;;;375.83;;
74959;SDS011;63518;49.572;1.106;2024-02-16T07:57:32;580.03;;;418.23;;
74959;SDS011;63518;49.572;1.106;2024-02-16T07:59:59;561.88;;;391.35;;
74959;SDS011;63518;49.572;1.106;2024-02-16T08:02:25;560.13;;;384.25;;
74959;SDS011;63518;49.572;1.106;2024-02-16T08:04:52;590.33;;;432.27;;
74959;SDS011;63518;49.572;1.106;2024-02-16T08:07:19;579.08;;;418.10;;
74959;SDS011;63518;49.572;1.106;2024-02-16T08:09:46;568.53;;;402.55;;
74959;SDS011;63518;49.572;1.106;2024-02-16T08:12:14;568.78;;;410.95;;
74959;SDS011;63518;49.572;1.106;2024-02-16T08:14:44;539.45;;;361.33;;
74959;SDS011;63518;49.572;1.106;2024-02-16T08:17:12;550.22;;;374.90;;
74959;SDS011;63518;49.572;1.106;2024-02-16T08:19:51;544.42;;;378.60;;
74959;SDS011;63518;49.572;1.106;2024-02-16T08:22:20;523.25;;;348.95;;
74959;SDS011;63518;49.572;1.106;2024-02-16T08:24:48;532.70;;;352.80;;
74959;SDS011;63518;49.572;1.106;2024-02-16T08:27:16;527.60;;;345.25;;
74959;SDS011;63518;49.572;1.106;2024-02-16T08:29:43;532.35;;;349.17;;
74959;SDS011;63518;49.572;1.106;2024-02-16T08:32:10;537.30;;;353.88;;
74959;SDS011;63518;49.572;1.106;2024-02-16T08:34:37;540.65;;;358.88;;
74959;SDS011;63518;49.572;1.106;2024-02-16T08:37:05;545.60;;;371.23;;
74959;SDS011;63518;49.572;1.106;2024-02-16T08:39:33;527.05;;;346.90;;
74959;SDS011;63518;49.572;1.106;2024-02-16T08:42:01;542.38;;;370.95;;
74959;SDS011;63518;49.572;1.106;2024-02-16T08:44:29;532.60;;;355.92;;
74959;SDS011;63518;49.572;1.106;2024-02-16T08:46:56;541.88;;;370.52;;
74959;SDS011;63518;49.572;1.106;2024-02-16T08:49:23;526.80;;;355.90;;
74959;SDS011;63518;49.572;1.106;2024-02-16T08:51:50;533.00;;;357.58;;
74959;SDS011;63518;49.572;1.106;2024-02-16T08:54:16;545.50;;;381.00;;
74959;SDS011;63518;49.572;1.106;2024-02-16T08:56:45;550.55;;;388.73;;
74959;SDS011;63518;49.572;1.106;2024-02-16T08:59:12;541.72;;;367.27;;
74959;SDS011;63518;49.572;1.106;2024-02-16T09:01:39;550.42;;;393.30;;
74959;SDS011;63518;49.572;1.106;2024-02-16T09:04:06;561.60;;;410.52;;
74959;SDS011;63518;49.572;1.106;2024-02-16T09:06:33;559.90;;;405.02;;
74959;SDS011;63518;49.572;1.106;2024-02-16T09:09:01;561.28;;;413.75;;
74959;SDS011;63518;49.572;1.106;2024-02-16T09:11:28;560.35;;;402.35;;
74959;SDS011;63518;49.572;1.106;2024-02-16T09:13:55;561.13;;;402.42;;
74959;SDS011;63518;49.572;1.106;2024-02-16T09:16:22;558.30;;;400.08;;
74959;SDS011;63518;49.572;1.106;2024-02-16T09:18:51;564.92;;;411.48;;
74959;SDS011;63518;49.572;1.106;2024-02-16T09:21:18;566.35;;;427.38;;
74959;SDS011;63518;49.572;1.106;2024-02-16T09:23:45;565.70;;;424.73;;
74959;SDS011;63518;49.572;1.106;2024-02-16T09:26:11;551.97;;;398.95;;
74959;SDS011;63518;49.572;1.106;2024-02-16T09:28:41;560.22;;;413.73;;
74959;SDS011;63518;49.572;1.106;2024-02-16T09:31:08;552.92;;;402.40;;
74959;SDS011;63518;49.572;1.106;2024-02-16T09:33:35;552.80;;;394.98;;
74959;SDS011;63518;49.572;1.106;2024-02-16T09:36:02;554.25;;;401.10;;
74959;SDS011;63518;49.572;1.106;2024-02-16T09:38:31;559.92;;;413.35;;
74959;SDS011;63518;49.572;1.106;2024-02-16T09:40:58;568.33;;;426.08;;
74959;SDS011;63518;49.572;1.106;2024-02-16T09:43:26;564.97;;;429.48;;
74959;SDS011;63518;49.572;1.106;2024-02-16T09:45:54;565.58;;;423.80;;
74959;SDS011;63518;49.572;1.106;2024-02-16T09:48:22;579.20;;;450.92;;
74959;SDS011;63518;49.572;1.106;2024-02-16T09:50:54;582.10;;;454.77;;
74959;SDS011;63518;49.572;1.106;2024-02-16T09:53:24;580.95;;;463.50;;
74959;SDS011;63518;49.572;1.106;2024-02-16T09:55:52;584.28;;;465.65;;
74959;SDS011;63518;49.572;1.106;2024-02-16T09:58:19;579.80;;;453.02;;
74959;SDS011;63518;49.572;1.106;2024-02-16T10:00:53;584.05;;;462.75;;
74959;SDS011;63518;49.572;1.106;2024-02-16T10:03:28;579.83;;;451.90;;
74959;SDS011;63518;49.572;1.106;2024-02-16T10:06:06;574.15;;;435.88;;
74959;SDS011;63518;49.572;1.106;2024-02-16T10:08:46;572.20;;;440.33;;
74959;SDS011;63518;49.572;1.106;2024-02-16T10:11:16;567.65;;;428.85;;
74959;SDS011;63518;49.572;1.106;2024-02-16T10:13:55;585.40;;;457.92;;
74959;SDS011;63518;49.572;1.106;2024-02-16T10:16:23;578.75;;;440.85;;
74959;SDS011;63518;49.572;1.106;2024-02-16T10:18:54;582.17;;;465.23;;
74959;SDS011;63518;49.572;1.106;2024-02-16T10:21:30;581.38;;;459.13;;
74959;SDS011;63518;49.572;1.106;2024-02-16T10:23:59;575.22;;;448.50;;
74959;SDS011;63518;49.572;1.106;2024-02-16T10:26:31;568.47;;;432.67;;
74959;SDS011;63518;49.572;1.106;2024-02-16T10:28:57;562.75;;;412.17;;
74959;SDS011;63518;49.572;1.106;2024-02-16T10:31:25;561.53;;;419.27;;
74959;SDS011;63518;49.572;1.106;2024-02-16T10:34:00;549.03;;;398.13;;
74959;SDS011;63518;49.572;1.106;2024-02-16T10:36:33;568.40;;;443.35;;
74959;SDS011;63518;49.572;1.106;2024-02-16T10:39:01;564.88;;;438.67;;
74959;SDS011;63518;49.572;1.106;2024-02-16T10:41:35;569.20;;;448.60;;
74959;SDS011;63518;49.572;1.106;2024-02-16T10:44:03;559.75;;;429.83;;
74959;SDS011;63518;49.572;1.106;2024-02-16T10:46:34;544.42;;;397.35;;
74959;SDS011;63518;49.572;1.106;2024-02-16T10:49:02;548.40;;;404.27;;
74959;SDS011;63518;49.572;1.106;2024-02-16T10:51:38;561.60;;;428.52;;
74959;SDS011;63518;49.572;1.106;2024-02-16T10:54:09;556.38;;;434.63;;
74959;SDS011;63518;49.572;1.106;2024-02-16T10:56:37;553.22;;;415.52;;
74959;SDS011;63518;49.572;1.106;2024-02-16T10:59:05;567.58;;;428.70;;
74959;SDS011;63518;49.572;1.106;2024-02-16T11:01:38;591.65;;;479.38;;
74959;SDS011;63518;49.572;1.106;2024-02-16T11:04:06;584.50;;;472.60;;
74959;SDS011;63518;49.572;1.106;2024-02-16T11:06:53;584.28;;;476.83;;
74959;SDS011;63518;49.572;1.106;2024-02-16T11:09:35;574.35;;;464.50;;
74959;SDS011;63518;49.572;1.106;2024-02-16T11:12:03;578.03;;;467.63;;
74959;SDS011;63518;49.572;1.106;2024-02-16T11:17:02;588.15;;;477.08;;
74959;SDS011;63518;49.572;1.106;2024-02-16T11:19:35;579.28;;;469.70;;
74959;SDS011;63518;49.572;1.106;2024-02-16T11:22:06;581.55;;;451.67;;
74959;SDS011;63518;49.572;1.106;2024-02-16T11:24:38;580.50;;;483.80;;
74959;SDS011;63518;49.572;1.106;2024-02-16T11:27:10;552.33;;;405.52;;
74959;SDS011;63518;49.572;1.106;2024-02-16T11:29:38;554.95;;;387.63;;
74959;SDS011;63518;49.572;1.106;2024-02-16T11:32:05;552.10;;;387.60;;
74959;SDS011;63518;49.572;1.106;2024-02-16T11:34:33;566.22;;;417.00;;
74959;SDS011;63518;49.572;1.106;2024-02-16T11:37:01;597.50;;;459.63;;
74959;SDS011;63518;49.572;1.106;2024-02-16T11:39:28;607.30;;;467.67;;
74959;SDS011;63518;49.572;1.106;2024-02-16T11:42:02;608.00;;;474.55;;
74959;SDS011;63518;49.572;1.106;2024-02-16T11:44:39;617.20;;;491.63;;
74959;SDS011;63518;49.572;1.106;2024-02-16T11:47:07;595.53;;;465.10;;
74959;SDS011;63518;49.572;1.106;2024-02-16T11:49:38;594.10;;;459.83;;
74959;SDS011;63518;49.572;1.106;2024-02-16T11:52:07;596.80;;;458.88;;
74959;SDS011;63518;49.572;1.106;2024-02-16T11:54:34;592.72;;;457.10;;
74959;SDS011;63518;49.572;1.106;2024-02-16T11:57:03;586.05;;;444.00;;
74959;SDS011;63518;49.572;1.106;2024-02-16T11:59:31;606.88;;;469.65;;
74959;SDS011;63518;49.572;1.106;2024-02-16T12:01:58;604.42;;;457.00;;
74959;SDS011;63518;49.572;1.106;2024-02-16T12:04:26;599.25;;;432.60;;
74959;SDS011;63518;49.572;1.106;2024-02-16T12:07:01;610.78;;;460.27;;
74959;SDS011;63518;49.572;1.106;2024-02-16T12:09:31;609.40;;;455.08;;
74959;SDS011;63518;49.572;1.106;2024-02-16T12:12:02;622.22;;;446.70;;
74959;SDS011;63518;49.572;1.106;2024-02-16T12:14:29;627.58;;;490.15;;
74959;SDS011;63518;49.572;1.106;2024-02-16T12:16:56;637.33;;;511.05;;
74959;SDS011;63518;49.572;1.106;2024-02-16T12:19:24;611.75;;;482.02;;
74959;SDS011;63518;49.572;1.106;2024-02-16T12:21:52;594.25;;;443.25;;
74959;SDS011;63518;49.572;1.106;2024-02-16T12:24:20;596.95;;;456.48;;
74959;SDS011;63518;49.572;1.106;2024-02-16T12:26:47;590.05;;;448.55;;
74959;SDS011;63518;49.572;1.106;2024-02-16T12:29:14;596.60;;;455.20;;
74959;SDS011;63518;49.572;1.106;2024-02-16T12:31:43;599.63;;;451.55;;
74959;SDS011;63518;49.572;1.106;2024-02-16T12:34:11;599.70;;;454.67;;
74959;SDS011;63518;49.572;1.106;2024-02-16T12:36:39;604.20;;;451.02;;
74959;SDS011;63518;49.572;1.106;2024-02-16T12:39:14;620.13;;;482.88;;
74959;SDS011;63518;49.572;1.106;2024-02-16T12:41:42;632.72;;;528.22;;
74959;SDS011;63518;49.572;1.106;2024-02-16T12:44:10;634.30;;;526.17;;
74959;SDS011;63518;49.572;1.106;2024-02-16T12:46:37;622.13;;;523.08;;
74959;SDS011;63518;49.572;1.106;2024-02-16T12:49:05;625.10;;;528.33;;
74959;SDS011;63518;49.572;1.106;2024-02-16T12:51:33;621.95;;;521.67;;
74959;SDS011;63518;49.572;1.106;2024-02-16T12:54:00;618.92;;;517.40;;
74959;SDS011;63518;49.572;1.106;2024-02-16T12:56:30;628.05;;;529.88;;
74959;SDS011;63518;49.572;1.106;2024-02-16T12:58:57;615.30;;;502.65;;
74959;SDS011;63518;49.572;1.106;2024-02-16T13:01:26;590.70;;;433.20;;
74959;SDS011;63518;49.572;1.106;2024-02-16T13:03:53;569.63;;;414.88;;
74959;SDS011;63518;49.572;1.106;2024-02-16T13:06:20;551.90;;;393.08;;
74959;SDS011;63518;49.572;1.106;2024-02-16T13:08:53;561.67;;;399.52;;
74959;SDS011;63518;49.572;1.106;2024-02-16T13:11:20;560.78;;;394.52;;
74959;SDS011;63518;49.572;1.106;2024-02-16T13:13:47;583.63;;;429.50;;
74959;SDS011;63518;49.572;1.106;2024-02-16T13:16:14;590.03;;;426.33;;
74959;SDS011;63518;49.572;1.106;2024-02-16T13:18:41;602.65;;;442.60;;
74959;SDS011;63518;49.572;1.106;2024-02-16T13:21:08;564.95;;;361.55;;
74959;SDS011;63518;49.572;1.106;2024-02-16T13:23:35;566.92;;;370.67;;
74959;SDS011;63518;49.572;1.106;2024-02-16T13:26:01;572.65;;;393.83;;
74959;SDS011;63518;49.572;1.106;2024-02-16T13:28:28;578.83;;;404.73;;
74959;SDS011;63518;49.572;1.106;2024-02-16T13:30:55;576.55;;;398.50;;
74959;SDS011;63518;49.572;1.106;2024-02-16T13:33:22;583.03;;;407.08;;
74959;SDS011;63518;49.572;1.106;2024-02-16T13:35:49;574.42;;;394.58;;
74959;SDS011;63518;49.572;1.106;2024-02-16T13:38:15;588.83;;;423.25;;
74959;SDS011;63518;49.572;1.106;2024-02-16T13:40:42;585.70;;;422.60;;
74959;SDS011;63518;49.572;1.106;2024-02-16T13:43:09;585.70;;;417.42;;
74959;SDS011;63518;49.572;1.106;2024-02-16T13:45:49;593.50;;;433.25;;
74959;SDS011;63518;49.572;1.106;2024-02-16T13:48:18;590.92;;;432.10;;
74959;SDS011;63518;49.572;1.106;2024-02-16T13:50:49;597.55;;;438.63;;
74959;SDS011;63518;49.572;1.106;2024-02-16T13:53:16;595.20;;;440.17;;
74959;SDS011;63518;49.572;1.106;2024-02-16T13:55:47;600.78;;;445.02;;
74959;SDS011;63518;49.572;1.106;2024-02-16T13:58:15;597.45;;;429.58;;
74959;SDS011;63518;49.572;1.106;2024-02-16T14:00:42;602.47;;;446.52;;
74959;SDS011;63518;49.572;1.106;2024-02-16T14:03:10;596.85;;;436.95;;
74959;SDS011;63518;49.572;1.106;2024-02-16T14:05:38;597.50;;;438.42;;
74959;SDS011;63518;49.572;1.106;2024-02-16T14:08:05;602.78;;;455.05;;